Terminal Aerodrome Forecast
Issued by NWS Austin/San Antonio, TX

Home | Current Version | Previous Version | Text Only | Print | Product List | Glossary On
Versions: 1 2 3 4 5 6 7 8 9 10 11 12 13 14 15 16 17 18 19 20 21 22 23 24 25 26 27 28
000
FTUS44 KEWX 210500
TAFAUS
TAF
KAUS 210534Z 2106/2212 VRB03KT P6SM SCT035 SCT060
     FM210900 VRB02KT P6SM BKN015
      TEMPO 2111/2114 5SM BR SCT015
     FM211600 07007KT P6SM SCT050
     FM220600 VRB02KT P6SM SCT020=

USA.gov is the U.S. government's official web portal to all federal, state and local government web resources and services.